Callender, Iowa
Current Conditions -  °F | °C
As of 6:35 AM on Wednesday 26 Nov 2014 (Local Time) from KFOD Reporting Station
Overcast Overcast  
Wind Chill: 16°   Ceiling: 1400
Heat Index: 27°   Visibility: 9mi
Dew Point: 23°   Wind: 12mph
Humidity: 86%   Direction: 110°ESE
Pressure: 29.9"   Gusts: NA
Location:  42.36°N, 94.3°W
Report Text: KFOD 261235Z AUTO 11010KT 9SM BKN014 OVC023 M03/M05 A2990 RMK AO1 P0001
Loading
Personal Weather Stations






























Interactive Weather Map New forecast layout! Learn more

10-Day Weather Forecast

Advertisements
Track Severe Weather on mobile